EZY2362 EGNS-EGGP
Flight info
| Callsign | EZY2362 |
|---|---|
| Flight time | 0h 22m |
| Altitude | 13000 |
| Route | TIMIS Q39 DANDI DCT PENIL |
| Aircraft | A20N/M-SDE2E3FGHIRWXY/LB1 |
Departure
| Time | 2026-04-22 20:37 |
|---|---|
| Airport | Isle of Man Airport (EGNS) |
Arrival
| Time | 2026-04-22 20:59 |
|---|---|
| Airport | Liverpool John Lennon Airport (EGGP) |
| Time | Latitude | Longitude | Altitude | Speed | Heading |
|---|---|---|---|---|---|
| 2026-04-22 20:33 | 54.08538 | -4.63334 | 48 ft | 1 kts | 168° |
| 2026-04-22 20:35 | 54.08457 | -4.63380 | 45 ft | 23 kts | 207° |
| 2026-04-22 20:35 | 54.08386 | -4.63383 | 46 ft | 6 kts | 169° |
| 2026-04-22 20:35 | 54.08350 | -4.63495 | 45 ft | 23 kts | 258° |
| 2026-04-22 20:35 | 54.08319 | -4.63653 | 50 ft | 23 kts | 242° |
| 2026-04-22 20:36 | 54.08211 | -4.63909 | 41 ft | 18 kts | 199° |
| 2026-04-22 20:36 | 54.08144 | -4.63819 | 35 ft | 14 kts | 89° |
| 2026-04-22 20:36 | 54.08179 | -4.63570 | 38 ft | 39 kts | 78° |
| 2026-04-22 20:36 | 54.08314 | -4.62466 | 74 ft | 148 kts | 80° |
| 2026-04-22 20:37 | 54.08564 | -4.60450 | 595 ft | 191 kts | 80° |
| 2026-04-22 20:37 | 54.08823 | -4.58200 | 1948 ft | 202 kts | 83° |
| 2026-04-22 20:37 | 54.08754 | -4.55664 | 2994 ft | 230 kts | 114° |
| 2026-04-22 20:37 | 54.07673 | -4.53690 | 4418 ft | 235 kts | 152° |
| 2026-04-22 20:38 | 54.06035 | -4.53300 | 5916 ft | 250 kts | 186° |
| 2026-04-22 20:38 | 54.04447 | -4.54657 | 7293 ft | 266 kts | 216° |
| 2026-04-22 20:38 | 54.03120 | -4.56875 | 8772 ft | 266 kts | 217° |
| 2026-04-22 20:38 | 54.01537 | -4.58387 | 10248 ft | 259 kts | 194° |
| 2026-04-22 20:39 | 53.99745 | -4.58773 | 11378 ft | 269 kts | 175° |
| 2026-04-22 20:39 | 53.97890 | -4.57801 | 12069 ft | 296 kts | 149° |
| 2026-04-22 20:39 | 53.96240 | -4.55498 | 12821 ft | 316 kts | 137° |
| 2026-04-22 20:39 | 53.94793 | -4.52704 | 13247 ft | 314 kts | 131° |
| 2026-04-22 20:40 | 53.93487 | -4.49724 | 13369 ft | 315 kts | 128° |
| 2026-04-22 20:40 | 53.92223 | -4.46669 | 13372 ft | 318 kts | 127° |
| 2026-04-22 20:40 | 53.90946 | -4.43599 | 13365 ft | 319 kts | 128° |
| 2026-04-22 20:40 | 53.89638 | -4.40549 | 13369 ft | 321 kts | 129° |
| 2026-04-22 20:41 | 53.88300 | -4.37529 | 13375 ft | 321 kts | 129° |
| 2026-04-22 20:41 | 53.87400 | -4.35539 | 13376 ft | 321 kts | 130° |
| 2026-04-22 20:41 | 53.86030 | -4.32556 | 13373 ft | 320 kts | 130° |
| 2026-04-22 20:41 | 53.84658 | -4.29597 | 13373 ft | 320 kts | 130° |
| 2026-04-22 20:42 | 53.83278 | -4.26639 | 13373 ft | 319 kts | 131° |
| 2026-04-22 20:42 | 53.81903 | -4.23695 | 13372 ft | 319 kts | 130° |
| 2026-04-22 20:42 | 53.80524 | -4.20747 | 13375 ft | 320 kts | 130° |
| 2026-04-22 20:42 | 53.79145 | -4.17795 | 13374 ft | 320 kts | 131° |
| 2026-04-22 20:43 | 53.77765 | -4.14845 | 13378 ft | 320 kts | 130° |
| 2026-04-22 20:43 | 53.76383 | -4.11892 | 13380 ft | 320 kts | 130° |
| 2026-04-22 20:43 | 53.75007 | -4.08948 | 13379 ft | 318 kts | 130° |
| 2026-04-22 20:43 | 53.73636 | -4.06021 | 13379 ft | 318 kts | 130° |
| 2026-04-22 20:44 | 53.72262 | -4.03090 | 13378 ft | 317 kts | 130° |
| 2026-04-22 20:44 | 53.70895 | -4.00177 | 13367 ft | 316 kts | 130° |
| 2026-04-22 20:44 | 53.69549 | -3.97297 | 13020 ft | 308 kts | 129° |
| 2026-04-22 20:44 | 53.68434 | -3.94232 | 12342 ft | 309 kts | 120° |
| 2026-04-22 20:45 | 53.67537 | -3.90929 | 11602 ft | 311 kts | 115° |
| 2026-04-22 20:45 | 53.66701 | -3.87569 | 10929 ft | 310 kts | 115° |
| 2026-04-22 20:45 | 53.65895 | -3.84239 | 10389 ft | 305 kts | 115° |
| 2026-04-22 20:45 | 53.65107 | -3.80956 | 9778 ft | 299 kts | 114° |
| 2026-04-22 20:46 | 53.63549 | -3.74474 | 8296 ft | 297 kts | 114° |
| 2026-04-22 20:46 | 53.62776 | -3.71255 | 7704 ft | 295 kts | 115° |
| 2026-04-22 20:46 | 53.61988 | -3.68129 | 7432 ft | 293 kts | 119° |
| 2026-04-22 20:47 | 53.60870 | -3.65258 | 7133 ft | 287 kts | 131° |
| 2026-04-22 20:47 | 53.59515 | -3.62868 | 6576 ft | 279 kts | 136° |
| 2026-04-22 20:47 | 53.58134 | -3.60640 | 5885 ft | 279 kts | 137° |
| 2026-04-22 20:47 | 53.56723 | -3.58389 | 5489 ft | 280 kts | 137° |
| 2026-04-22 20:48 | 53.55313 | -3.56133 | 5390 ft | 280 kts | 137° |
| 2026-04-22 20:48 | 53.53923 | -3.53902 | 5362 ft | 267 kts | 137° |
| 2026-04-22 20:48 | 53.53038 | -3.52476 | 5232 ft | 255 kts | 136° |
| 2026-04-22 20:49 | 53.52147 | -3.51041 | 5079 ft | 248 kts | 136° |
| 2026-04-22 20:49 | 53.50916 | -3.49056 | 4980 ft | 245 kts | 136° |
| 2026-04-22 20:49 | 53.49687 | -3.47076 | 4916 ft | 244 kts | 136° |
| 2026-04-22 20:49 | 53.48525 | -3.45038 | 4499 ft | 240 kts | 129° |
| 2026-04-22 20:50 | 53.47650 | -3.42673 | 4029 ft | 239 kts | 120° |
| 2026-04-22 20:50 | 53.46930 | -3.40247 | 3557 ft | 237 kts | 117° |
| 2026-04-22 20:50 | 53.46227 | -3.37782 | 3147 ft | 232 kts | 117° |
| 2026-04-22 20:50 | 53.45536 | -3.35354 | 2973 ft | 230 kts | 117° |
| 2026-04-22 20:51 | 53.44843 | -3.32935 | 2957 ft | 230 kts | 117° |
| 2026-04-22 20:51 | 53.44148 | -3.30523 | 2957 ft | 229 kts | 118° |
| 2026-04-22 20:51 | 53.43278 | -3.28314 | 2977 ft | 228 kts | 133° |
| 2026-04-22 20:51 | 53.42083 | -3.26566 | 2980 ft | 228 kts | 141° |
| 2026-04-22 20:52 | 53.40821 | -3.24978 | 2790 ft | 224 kts | 142° |
| 2026-04-22 20:52 | 53.39626 | -3.23511 | 2563 ft | 216 kts | 142° |
| 2026-04-22 20:52 | 53.38460 | -3.22077 | 2478 ft | 200 kts | 141° |
| 2026-04-22 20:52 | 53.37382 | -3.20750 | 2480 ft | 183 kts | 140° |
| 2026-04-22 20:53 | 53.36384 | -3.19514 | 2482 ft | 176 kts | 140° |
| 2026-04-22 20:53 | 53.35402 | -3.18290 | 2480 ft | 174 kts | 140° |
| 2026-04-22 20:53 | 53.34470 | -3.17133 | 2480 ft | 160 kts | 140° |
| 2026-04-22 20:53 | 53.33593 | -3.16042 | 2485 ft | 156 kts | 140° |
| 2026-04-22 20:54 | 53.32749 | -3.14908 | 2483 ft | 155 kts | 132° |
| 2026-04-22 20:54 | 53.32285 | -3.13320 | 2492 ft | 155 kts | 105° |
| 2026-04-22 20:54 | 53.32189 | -3.11536 | 2526 ft | 152 kts | 95° |
| 2026-04-22 20:54 | 53.32228 | -3.09764 | 2511 ft | 154 kts | 92° |
| 2026-04-22 20:55 | 53.32306 | -3.07974 | 2488 ft | 155 kts | 92° |
| 2026-04-22 20:55 | 53.32389 | -3.06174 | 2449 ft | 155 kts | 91° |
| 2026-04-22 20:55 | 53.32469 | -3.04434 | 2266 ft | 144 kts | 91° |
| 2026-04-22 20:55 | 53.32543 | -3.02814 | 2072 ft | 137 kts | 91° |
| 2026-04-22 20:56 | 53.32615 | -3.01228 | 1870 ft | 136 kts | 91° |
| 2026-04-22 20:56 | 53.32686 | -2.99699 | 1679 ft | 125 kts | 90° |
| 2026-04-22 20:56 | 53.32749 | -2.98311 | 1520 ft | 117 kts | 89° |
| 2026-04-22 20:56 | 53.32811 | -2.96965 | 1356 ft | 115 kts | 89° |
| 2026-04-22 20:57 | 53.32871 | -2.95645 | 1203 ft | 113 kts | 87° |
| 2026-04-22 20:57 | 53.32932 | -2.94335 | 1038 ft | 112 kts | 86° |
| 2026-04-22 20:57 | 53.32991 | -2.93071 | 875 ft | 113 kts | 87° |
| 2026-04-22 20:57 | 53.33051 | -2.91745 | 749 ft | 116 kts | 86° |
| 2026-04-22 20:58 | 53.33118 | -2.90419 | 572 ft | 114 kts | 86° |
| 2026-04-22 20:58 | 53.33188 | -2.89090 | 391 ft | 114 kts | 89° |
| 2026-04-22 20:58 | 53.33237 | -2.87792 | 239 ft | 110 kts | 86° |
| 2026-04-22 20:58 | 53.33292 | -2.86503 | 127 ft | 112 kts | 84° |
| 2026-04-22 20:59 | 53.33350 | -2.85249 | 99 ft | 97 kts | 85° |
| 2026-04-22 20:59 | 53.33390 | -2.84365 | 98 ft | 62 kts | 85° |
| 2026-04-22 20:59 | 53.33417 | -2.83799 | 98 ft | 37 kts | 85° |
| 2026-04-22 20:59 | 53.33471 | -2.83632 | 99 ft | 9 kts | 5° |
| 2026-04-22 21:00 | 53.33536 | -2.83637 | 100 ft | 10 kts | 353° |
| 2026-04-22 21:00 | 53.33584 | -2.83683 | 98 ft | 5 kts | 287° |
| 2026-04-22 21:00 | 53.33581 | -2.83824 | 98 ft | 24 kts | 265° |
| 2026-04-22 21:00 | 53.33562 | -2.84240 | 98 ft | 38 kts | 264° |
| 2026-04-22 21:01 | 53.33548 | -2.84545 | 98 ft | 2 kts | 266° |
| 2026-04-22 21:01 | 53.33538 | -2.84782 | 100 ft | 45 kts | 266° |
| 2026-04-22 21:01 | 53.33517 | -2.85239 | 97 ft | 31 kts | 265° |
| 2026-04-22 21:01 | 53.33515 | -2.85472 | 98 ft | 11 kts | 303° |
| 2026-04-22 21:02 | 53.33579 | -2.85510 | 97 ft | 8 kts | 347° |
| 2026-04-22 21:02 | 53.33606 | -2.85520 | 99 ft | 7 kts | 356° |
| 2026-04-22 21:02 | 53.33663 | -2.85527 | 99 ft | 0 kts | 355° |